Date,TemperatureHighF,TemperatureAvgF,TemperatureLowF,DewpointHighF,DewpointAvgF,DewpointLowF,HumidityHigh,HumidityAvg,HumidityLow,PressureMaxIn,PressureMinIn,WindSpeedMaxMPH,WindSpeedAvgMPH,GustSpeedMaxMPH,PrecipitationSumIn
2014-1-1,46.4,34.7,25.0,24.1,-6.1,-23.9,43,15,1,30.16,29.88,0,0,0,0.00
2014-1-2,39.8,33.7,29.0,-12.3,-17.1,-20.8,1,1,1,29.87,29.37,0,0,0,0.03
2014-1-3,30.8,20.1,11.5,8.4,-11.2,-30.9,53,26,1,30.22,29.39,0,0,0,0.03
2014-1-4,34.2,21.4,10.8,16.9,-13.3,-35.2,50,21,1,30.25,29.98,0,0,0,0.01
2014-1-5,38.5,35.4,24.8,-13.3,-15.9,-24.1,1,1,1,29.98,29.44,0,0,0,0.06
2014-1-6,45.4,34.4,9.7,16.2,-3.4,-14.7,51,20,1,29.82,29.23,0,0,0,0.15
2014-1-7,19.1,10.9,4.7,2.1,-3.6,-8.8,56,51,45,30.18,29.82,0,0,0,0.00
2014-1-8,32.6,20.7,8.3,14.8,4.5,-12.7,56,49,32,30.32,30.17,0,0,0,0.00
2014-1-9,42.5,32.1,26.8,24.3,11.8,-4.4,52,43,22,30.36,30.20,0,0,0,0.00
2014-1-10,38.5,35.6,32.0,7.9,-11.2,-17.4,36,7,1,30.27,29.86,0,0,0,0.52
2014-1-11,50.9,44.1,36.2,-3.8,-9.1,-15.2,1,1,1,29.86,29.14,0,0,0,0.76
2014-1-12,51.8,42.3,29.7,-3.1,-10.4,-20.2,6,1,1,29.86,29.30,0,0,0,0.01
2014-1-13,58.7,42.9,27.0,17.3,-9.4,-22.4,20,4,1,29.85,29.61,0,0,0,0.00
2014-1-14,51.1,45.1,32.8,-3.6,-8.2,-17.8,5,1,1,29.66,29.45,0,0,0,0.32
2014-1-15,49.9,41.6,32.8,-4.6,-11.0,-17.8,1,1,1,29.71,29.61,0,0,0,0.01
2014-1-16,41.0,34.5,26.3,17.9,-7.1,-22.9,41,14,1,29.77,29.63,0,0,0,0.00
2014-1-17,50.2,37.7,26.6,26.0,-6.3,-22.7,41,11,1,29.71,29.53,0,0,0,0.00
2014-1-18,36.4,29.5,20.9,16.7,1.7,-19.3,56,34,1,29.74,29.53,0,0,0,0.00
2014-1-19,49.3,34.3,21.4,30.4,17.0,-3.7,54,49,29,29.71,29.49,0,0,0,0.00
2014-1-20,56.5,41.9,30.8,36.4,20.4,-19.1,54,44,1,29.63,29.39,0,0,0,0.00
2014-1-21,35.3,28.1,15.3,15.1,-13.1,-30.6,54,13,1,29.64,29.49,0,0,0,0.00
2014-1-22,19.1,12.5,5.9,4.5,-0.1,-5.7,59,57,51,29.84,29.63,0,0,0,0.02
2014-1-23,28.4,15.7,3.2,13.6,1.1,-22.8,59,53,22,30.18,29.83,0,0,0,0.00
2014-1-24,25.4,15.6,7.2,8.0,1.9,-3.9,60,54,45,30.27,29.82,0,0,0,0.00
2014-1-25,34.6,27.1,20.5,17.9,11.7,5.0,56,52,46,29.82,29.22,0,0,0,0.00
2014-1-26,34.0,26.1,15.8,17.3,10.9,1.5,59,52,36,29.67,29.39,0,0,0,0.02
2014-1-27,51.7,34.0,20.7,33.5,16.8,5.1,54,49,40,29.93,29.39,0,0,0,0.01
2014-1-28,20.5,16.6,11.9,5.6,0.8,-3.7,60,49,45,30.19,29.93,0,0,0,0.00
2014-1-29,25.6,16.3,10.8,6.0,2.2,-2.2,62,54,42,30.10,29.93,0,0,0,0.01
2014-1-30,34.9,20.7,6.8,15.1,4.7,-24.8,62,51,15,30.20,29.92,0,0,0,0.00
2014-1-31,52.0,35.0,23.8,26.7,18.0,11.5,60,51,32,29.98,29.84,0,0,0,0.00
2014-2-1,52.6,37.6,24.8,30.2,16.4,-22.7,58,43,1,30.04,29.72,0,0,0,0.00
2014-2-2,61.9,45.3,29.9,40.9,20.7,-20.1,55,40,1,29.80,29.65,0,0,0,0.00
2014-2-3,47.7,37.3,29.5,14.1,-14.2,-20.3,26,1,1,30.06,29.73,0,0,0,1.28
2014-2-4,40.3,32.5,26.3,-11.9,-18.1,-22.9,6,1,1,30.21,29.87,0,0,0,0.00
2014-2-5,38.5,34.5,31.7,-13.3,-16.5,-18.6,1,1,1,29.88,29.42,0,0,0,0.38
2014-2-6,37.8,31.5,28.1,19.3,-7.7,-21.5,48,17,1,30.07,29.82,0,0,0,0.00
2014-2-7,43.7,32.5,22.7,23.3,-6.0,-37.4,46,18,1,30.07,29.96,0,0,0,0.00
2014-2-8,36.9,30.6,23.6,20.1,9.2,-25.3,52,42,4,30.07,29.91,0,0,0,0.00
2014-2-9,37.3,31.0,22.7,14.0,-11.7,-25.8,43,12,1,29.92,29.71,0,0,0,0.00
2014-2-10,34.4,28.3,21.4,18.4,2.7,-23.1,53,36,1,30.05,29.76,0,0,0,0.00
2014-2-11,34.7,24.4,16.9,17.5,5.8,-15.9,55,46,22,30.18,30.04,0,0,0,0.00
2014-2-12,32.6,24.2,15.8,16.9,2.0,-23.1,54,41,1,30.24,29.84,0,0,0,0.00
2014-2-13,38.2,33.2,26.3,-13.7,-17.5,-22.9,1,1,1,29.84,29.02,0,0,0,0.40
2014-2-14,52.2,38.5,27.7,32.6,-4.2,-21.8,49,13,1,29.43,29.06,0,0,0,0.29
2014-2-15,38.5,35.6,27.7,12.2,-8.9,-16.2,47,11,1,29.63,29.31,0,0,0,0.09
2014-2-16,42.8,31.5,24.5,26.0,12.0,-22.9,54,46,1,29.91,29.63,0,0,0,0.00
2014-2-17,40.0,29.5,20.3,21.3,7.0,-23.4,55,41,1,30.16,29.91,0,0,0,0.00
2014-2-18,55.4,38.3,27.7,36.0,0.9,-39.5,54,21,1,29.95,29.72,0,0,0,0.05
2014-2-19,62.3,44.1,29.5,33.1,1.2,-20.3,50,15,1,29.86,29.41,0,0,0,0.09
2014-2-20,57.2,41.8,28.4,36.6,8.8,-37.6,53,27,1,29.97,29.65,0,0,0,0.00
2014-2-21,67.3,45.5,32.2,9.0,-7.9,-18.4,17,1,1,29.69,29.35,0,0,0,0.15
2014-2-22,62.6,42.4,27.5,40.9,7.9,-22.7,53,25,1,29.82,29.69,0,0,0,0.00
2014-2-23,62.3,49.4,40.1,39.3,29.8,-6.9,53,47,18,29.73,29.57,0,0,0,0.00
2014-2-24,45.5,38.8,27.2,23.4,12.6,-11.9,54,36,1,29.85,29.63,0,0,0,0.00
2014-2-25,39.4,31.0,24.5,18.9,11.8,-1.3,57,45,23,29.84,29.69,0,0,0,0.04
2014-2-26,38.2,30.2,18.9,22.0,4.5,-20.8,58,36,1,29.71,29.55,0,0,0,0.04
2014-2-27,40.5,27.9,16.0,20.4,8.8,-9.4,58,45,26,29.85,29.38,0,0,0,0.01
2014-2-28,33.1,21.5,12.1,8.6,2.7,-2.5,52,44,33,30.12,29.85,0,0,0,0.00
2014-3-1,46.8,31.8,16.2,25.8,15.6,0.5,60,51,42,30.08,29.87,0,0,0,0.00
2014-3-2,57.8,41.3,34.0,38.6,11.5,-33.7,56,32,1,29.87,29.67,0,0,0,0.22
2014-3-3,36.4,26.1,5.9,8.8,-15.8,-28.8,57,12,1,30.06,29.69,0,0,0,0.15
2014-3-4,36.4,24.2,4.3,20.2,3.9,-31.0,57,43,16,30.07,29.93,0,0,0,0.04
2014-3-5,47.0,31.5,16.6,26.0,1.3,-30.6,54,29,1,30.10,29.88,0,0,0,0.17
2014-3-6,38.3,31.3,23.4,23.1,16.8,3.5,59,55,30,30.27,30.05,0,0,0,0.00
2014-3-7,47.9,37.3,30.2,31.5,8.9,-19.7,54,35,5,30.05,29.62,0,0,0,0.00
2014-3-8,64.8,44.7,26.1,44.3,12.6,-23.1,55,29,1,29.67,29.56,0,0,0,0.00
2014-3-9,51.5,44.9,36.5,29.7,22.6,-9.2,56,43,1,29.81,29.60,0,0,0,0.00
2014-3-10,61.9,45.3,35.1,39.1,28.9,21.0,59,53,39,29.70,29.35,0,0,0,0.00
2014-3-11,68.0,49.8,37.4,46.5,17.6,-12.5,56,31,1,29.41,29.32,0,0,0,0.00
2014-3-12,67.1,50.6,33.5,46.9,9.5,-12.3,58,19,1,29.34,28.74,0,0,0,0.01
2014-3-13,36.7,29.0,21.4,19.8,10.4,5.1,59,46,33,29.86,29.19,0,0,0,0.00
2014-3-14,60.7,41.7,21.2,31.8,21.3,8.3,60,46,31,29.91,29.56,0,0,0,0.00
2014-3-15,67.1,54.5,39.6,41.9,30.1,24.0,54,40,25,29.73,29.50,0,0,0,0.00
2014-3-16,49.7,39.6,30.2,28.6,16.0,-19.8,59,41,1,29.86,29.73,0,0,0,0.00
2014-3-17,34.6,29.9,25.7,7.5,-16.3,-23.4,33,7,1,29.78,29.66,0,0,0,0.00
2014-3-18,46.4,37.3,29.2,30.2,16.1,-19.6,57,44,2,29.91,29.73,0,0,0,0.01
2014-3-19,44.8,40.2,35.6,21.3,-7.0,-15.1,50,8,1,29.90,29.53,0,0,0,0.19
2014-3-20,59.9,48.8,41.0,38.9,13.4,-11.2,53,25,1,29.69,29.48,0,0,0,0.01
2014-3-21,55.8,44.7,34.7,37.9,21.9,-14.0,57,43,1,29.76,29.68,0,0,0,0.00
2014-3-22,71.8,52.1,36.5,48.1,16.8,-14.9,56,26,1,29.69,29.50,0,0,0,0.00
2014-3-23,49.3,43.6,33.5,32.1,26.8,12.9,58,52,41,29.85,29.67,0,0,0,0.00
2014-3-24,44.5,32.0,22.1,19.0,13.7,8.7,59,47,33,30.00,29.81,0,0,0,0.00
2014-3-25,39.1,32.4,24.5,14.7,-5.8,-24.7,61,20,1,29.81,29.53,0,0,0,0.13
2014-3-26,38.2,31.2,26.5,19.1,2.6,-22.2,55,32,1,29.98,29.55,0,0,0,0.12
2014-3-27,53.1,37.0,19.3,29.1,17.4,-20.2,59,46,14,30.10,29.85,0,0,0,0.00
2014-3-28,67.3,55.0,40.7,43.8,20.3,-14.6,57,28,1,29.85,29.66,0,0,0,0.04
2014-3-29,60.3,56.2,52.7,3.5,0.3,-2.5,1,1,1,29.76,29.22,0,0,0,0.75
2014-3-30,52.4,42.4,34.0,-2.6,-10.4,-16.9,1,1,1,29.39,29.16,0,0,0,1.31
2014-5-21,77.6,66.0,61.7,56.4,12.8,4.7,48,7,1,29.69,29.66,0,0,0,0.28
2014-5-22,86.8,73.9,61.9,58.1,23.9,4.9,40,12,1,29.66,29.53,0,0,0,0.06
2014-5-23,77.6,67.9,56.3,54.9,38.3,0.5,49,36,1,29.80,29.66,0,0,0,0.00
2014-5-24,77.4,64.8,52.9,55.7,31.2,-2.1,49,31,1,29.88,29.77,0,0,0,0.00
2014-5-25,82.1,68.6,53.5,56.3,29.5,-1.8,49,24,1,29.94,29.85,0,0,0,0.00
2014-5-26,66.8,58.3,56.2,8.4,2.0,0.4,13,1,1,29.90,29.87,0,0,0,0.00
2014-6-9,84.8,77.4,65.7,22.1,16.6,7.7,1,1,1,29.66,29.61,0,0,0,0.00
2014-6-10,86.4,76.8,72.4,23.5,16.2,12.7,1,1,1,29.70,29.62,0,0,0,0.16
2014-6-11,87.1,75.7,68.4,24.1,15.4,9.8,1,1,1,29.78,29.67,0,0,0,0.74
2014-6-12,78.5,72.4,68.0,17.4,12.8,9.5,1,1,1,29.75,29.60,0,0,0,0.07
2014-6-13,84.6,75.1,67.9,22.0,14.8,9.4,1,1,1,29.63,29.51,0,0,0,0.08
2014-6-14,75.8,69.3,62.1,43.8,12.4,5.0,33,4,1,29.88,29.63,0,0,0,0.01
2014-6-15,82.6,68.5,52.4,48.1,13.8,-2.6,31,6,1,29.95,29.84,0,0,0,0.00
2014-6-16,90.4,76.4,59.6,59.4,21.5,3.0,37,7,1,29.90,29.80,0,0,0,0.00
2014-6-17,92.7,82.0,67.7,46.5,20.6,9.3,21,2,1,29.88,29.71,0,0,0,0.00
2014-6-18,93.8,84.5,72.2,51.8,25.1,12.7,25,5,1,29.79,29.71,0,0,0,0.00
2014-6-19,87.5,80.2,68.8,24.4,18.8,10.1,1,1,1,29.80,29.69,0,0,0,0.00
2014-6-20,83.2,73.0,62.6,58.0,27.4,5.4,44,17,1,29.83,29.68,0,0,0,0.00
2014-6-21,75.4,70.0,67.3,15.1,11.0,9.0,1,1,1,29.72,29.64,0,0,0,0.02
2014-6-22,82.4,73.2,65.2,39.2,14.4,7.2,23,3,1,29.78,29.65,0,0,0,0.01
2014-6-23,83.2,73.1,59.4,56.4,26.2,2.8,41,15,1,29.90,29.77,0,0,0,0.00
2014-6-24,87.5,77.1,64.4,55.2,22.2,6.7,34,8,1,29.91,29.75,0,0,0,0.00
2014-6-25,91.1,80.0,69.8,27.1,18.7,10.8,1,1,1,29.78,29.58,0,0,0,0.30
2014-6-26,87.7,77.6,68.4,42.4,17.1,9.8,21,2,1,29.75,29.61,0,0,0,0.00
2014-6-27,86.4,76.4,65.0,23.4,15.8,7.1,1,1,1,29.95,29.74,0,0,0,0.00
2014-6-28,85.0,75.0,61.7,59.1,26.5,4.7,42,14,1,30.04,29.95,0,0,0,0.00
2014-6-29,85.7,75.1,61.4,59.5,34.2,-13.9,46,23,1,30.01,29.87,0,0,0,0.00
2014-6-30,87.8,79.4,69.5,57.4,28.8,10.5,37,13,1,29.88,29.69,0,0,0,0.00
2014-7-1,93.6,83.2,70.2,44.7,21.3,11.1,19,2,1,29.73,29.59,0,0,0,0.00
2014-7-2,96.5,84.0,74.2,50.5,21.8,14.2,22,2,1,29.71,29.59,0,0,0,0.03
2014-7-3,92.3,78.5,70.4,28.0,17.5,11.3,1,1,1,29.74,29.66,0,0,0,0.65
2014-7-4,78.7,72.2,62.6,48.7,15.0,2.7,40,4,1,29.95,29.72,0,0,0,0.02
2014-7-5,82.4,69.0,53.6,57.6,26.6,-1.6,46,20,1,30.03,29.93,0,0,0,0.00
2014-7-6,86.4,73.1,56.0,60.7,25.7,0.2,42,15,1,29.93,29.71,0,0,0,0.00
2014-7-7,90.7,81.8,70.2,64.4,37.7,11.1,42,20,1,29.71,29.57,0,0,0,0.00
2014-7-8,92.3,80.5,68.8,64.9,29.9,10.1,42,13,1,29.66,29.48,0,0,0,0.32
2014-7-9,88.4,75.0,68.0,24.9,14.8,9.5,1,1,1,29.74,29.59,0,0,0,0.01
2014-7-10,88.2,74.6,67.3,24.9,14.5,9.0,1,1,1,29.88,29.72,0,0,0,0.98
2014-7-11,81.7,70.1,63.2,20.0,11.1,5.8,1,1,1,29.96,29.88,0,0,0,0.00
2014-7-20,83.9,78.3,69.5,21.5,17.3,10.5,1,1,1,29.89,29.84,0,0,0,1.50
2014-7-21,85.9,76.1,69.1,23.0,15.6,10.3,1,1,1,29.95,29.88,0,0,0,0.00
2014-7-22,89.6,77.7,68.0,25.7,16.9,9.5,1,1,1,29.96,29.82,0,0,0,0.00
2014-7-23,94.3,80.8,70.0,30.0,19.3,11.0,11,1,1,29.83,29.56,0,0,0,0.01
2014-7-24,82.4,73.7,62.6,20.5,13.8,5.4,1,1,1,29.71,29.61,0,0,0,0.03
2014-7-25,83.2,69.8,56.2,52.5,18.9,0.4,35,10,1,29.84,29.71,0,0,0,0.00
2014-7-26,88.0,75.1,63.5,53.4,17.9,6.0,33,5,1,29.77,29.64,0,0,0,0.00
2014-7-27,88.9,77.3,69.3,25.4,16.6,10.5,1,1,1,29.65,29.39,0,0,0,0.07
2014-7-28,83.9,76.1,67.3,40.5,16.8,9.0,24,3,1,29.59,29.35,0,0,0,0.01
2014-7-29,74.7,67.3,58.7,47.7,19.1,2.3,40,13,1,29.79,29.58,0,0,0,0.00
2014-7-30,80.5,66.7,50.6,52.3,18.7,-4.0,39,13,1,29.85,29.77,0,0,0,0.00
2014-7-31,86.8,72.8,57.1,56.8,21.3,1.0,37,10,1,29.89,29.82,0,0,0,0.00
2014-8-1,82.8,74.0,67.5,20.8,14.0,9.1,1,1,1,29.97,29.88,0,0,0,0.00
2014-8-2,81.4,71.6,63.2,19.6,12.2,5.8,1,1,1,29.94,29.82,0,0,0,0.14
2014-8-3,82.3,73.9,65.9,20.3,14.0,7.8,1,1,1,29.86,29.76,0,0,0,0.55
2014-8-4,84.1,72.0,63.5,21.7,12.5,6.0,1,1,1,29.88,29.80,0,0,0,0.02
2014-8-5,89.3,76.0,62.6,35.5,15.7,5.4,16,2,1,29.84,29.69,0,0,0,0.03
2014-8-6,84.6,73.5,63.4,22.0,13.6,5.8,1,1,1,29.74,29.66,0,0,0,0.00
2014-8-7,82.4,73.1,63.0,52.2,18.7,-5.0,37,7,1,29.81,29.69,0,0,0,0.00
2014-8-8,82.8,71.9,58.5,48.4,17.5,2.1,31,7,1,29.90,29.81,0,0,0,0.00
2014-8-9,86.8,74.1,61.7,23.8,14.1,4.7,1,1,1,29.89,29.83,0,0,0,0.00
2014-8-10,87.5,75.3,63.5,44.2,15.3,6.0,23,2,1,29.91,29.83,0,0,0,0.00
2014-8-11,84.2,72.6,59.4,29.8,13.2,2.8,18,2,1,29.89,29.77,0,0,0,0.05
2014-8-12,74.7,70.9,68.6,14.6,11.7,9.9,1,1,1,29.77,29.52,0,0,0,3.49
2014-8-13,79.9,72.5,61.9,18.6,12.9,4.9,1,1,1,29.69,29.50,0,0,0,0.01
2014-8-14,81.7,68.2,54.7,20.0,9.6,-0.7,1,1,1,29.73,29.61,0,0,0,0.00
2014-8-15,78.1,65.8,52.2,49.0,12.8,-2.8,37,7,1,29.79,29.69,0,0,0,0.00
2014-8-16,80.6,68.8,54.9,51.6,17.7,-0.6,37,10,1,29.80,29.69,0,0,0,0.00
2014-8-17,87.5,74.8,60.8,24.4,14.7,4.0,1,1,1,29.71,29.63,0,0,0,0.00
2014-8-18,86.6,74.9,64.4,23.7,14.7,6.7,1,1,1,29.71,29.57,0,0,0,0.00
2014-8-19,84.8,75.7,68.8,22.2,15.3,10.1,1,1,1,29.68,29.56,0,0,0,0.00
2014-8-20,88.2,73.4,65.2,24.8,13.6,7.2,1,1,1,29.78,29.68,0,0,0,0.08
2014-8-21,85.5,73.6,64.1,22.8,13.8,6.4,1,1,1,29.82,29.73,0,0,0,0.02
2014-8-22,81.0,72.9,67.1,19.3,13.2,8.8,1,1,1,29.77,29.71,0,0,0,0.00
2014-8-24,80.3,70.7,61.6,18.8,11.5,4.5,1,1,1,29.91,29.84,0,0,0,0.00
2014-8-25,80.8,69.6,58.3,19.3,10.7,2.0,1,1,1,29.95,29.88,0,0,0,0.00
2014-8-26,86.4,71.0,57.6,23.5,11.7,1.4,1,1,1,29.94,29.84,0,0,0,0.00
2014-8-27,88.7,73.5,59.9,25.3,13.7,3.2,1,1,1,29.85,29.66,0,0,0,0.00
2014-8-28,82.4,74.5,64.1,20.5,14.4,6.4,10,1,1,29.84,29.65,0,0,0,0.00
2014-8-29,79.9,65.5,53.3,35.0,8.4,-1.9,20,3,1,29.97,29.84,0,0,0,0.00
2014-8-30,85.7,75.1,66.1,23.0,14.9,7.9,1,1,1,29.99,29.86,0,0,0,0.00
2014-8-31,91.8,79.5,73.4,27.6,18.3,13.7,1,1,1,29.89,29.73,0,0,0,0.75
2014-9-1,87.8,78.7,73.1,24.7,17.6,13.4,1,1,1,29.80,29.69,0,0,0,0.04
2014-9-2,88.6,81.1,71.6,25.2,19.5,12.2,1,1,1,29.74,29.61,0,0,0,0.42
2014-9-3,82.8,76.4,69.5,20.8,15.9,10.5,1,1,1,29.89,29.67,0,0,0,0.00
2014-9-4,85.3,76.2,66.4,22.5,15.7,8.3,1,1,1,29.94,29.84,0,0,0,0.00
2014-9-5,87.8,79.8,71.5,24.7,18.5,12.1,1,1,1,29.93,29.78,0,0,0,0.00
2014-9-6,90.4,79.8,71.6,26.5,18.5,12.2,1,1,1,29.79,29.61,0,0,0,0.58
2014-9-7,78.8,71.0,64.6,17.6,11.7,6.9,1,1,1,29.93,29.72,0,0,0,0.00
2014-9-8,73.8,67.5,62.3,14.0,9.0,5.1,1,1,1,30.00,29.92,0,0,0,0.00
2014-9-9,76.0,69.5,65.2,15.5,10.6,7.2,1,1,1,29.96,29.85,0,0,0,0.00
2014-9-10,79.0,72.0,68.0,17.8,12.5,9.5,1,1,1,29.89,29.75,0,0,0,0.00
2014-9-11,85.7,76.0,68.4,22.8,15.6,9.8,1,1,1,29.76,29.62,0,0,0,0.00
2014-9-12,77.2,67.8,61.0,16.5,9.3,4.2,1,1,1,29.91,29.74,0,0,0,0.00
2014-9-13,68.9,63.1,56.7,10.2,5.7,0.7,1,1,1,29.98,29.86,0,0,0,0.12
2014-9-14,69.1,58.4,49.3,10.1,2.0,-5.0,1,1,1,30.08,29.96,0,0,0,0.00
2014-9-15,76.9,62.2,51.3,16.1,5.0,-3.5,1,1,1,30.00,29.79,0,0,0,0.00
2014-9-16,77.8,66.5,54.4,16.9,8.3,-1.1,1,1,1,29.80,29.74,0,0,0,0.00
2014-9-17,76.5,62.0,50.9,15.9,4.8,-4.0,1,1,1,29.82,29.71,0,0,0,0.00
2014-9-18,80.5,64.7,54.2,18.8,6.9,-1.2,1,1,1,29.87,29.71,0,0,0,0.00
2014-9-19,74.5,64.1,55.8,14.4,6.5,0.1,1,1,1,30.06,29.86,0,0,0,0.00
2014-9-20,81.2,68.5,59.6,19.5,9.8,2.8,1,1,1,30.04,29.79,0,0,0,0.00
2014-9-21,81.7,68.8,57.8,20.0,10.0,1.5,1,1,1,29.81,29.40,0,0,0,0.00
2014-9-22,70.6,63.9,54.4,11.3,6.3,-1.2,10,1,1,29.99,29.51,0,0,0,0.00
2014-9-23,69.5,57.0,42.3,36.3,4.4,-10.4,30,5,1,30.14,29.99,0,0,0,0.00
2014-9-24,68.2,58.6,47.3,9.6,2.2,-6.5,1,1,1,30.20,30.11,0,0,0,0.00
2014-9-25,67.9,63.8,60.7,9.4,6.3,3.8,1,1,1,30.11,29.98,0,0,0,0.00
2014-9-26,71.5,63.5,54.5,12.1,6.0,-0.9,1,1,1,30.01,29.93,0,0,0,0.00
2014-9-27,77.0,63.6,51.8,16.4,6.1,-3.1,1,1,1,30.00,29.93,0,0,0,0.00
2014-9-28,80.3,65.3,53.1,18.8,7.3,-2.1,1,1,1,29.96,29.80,0,0,0,0.00
2014-9-29,72.9,66.8,60.5,13.2,8.5,3.7,1,1,1,29.81,29.68,0,0,0,0.00
2014-9-30,75.1,69.2,63.9,14.9,10.4,6.3,1,1,1,29.71,29.61,0,0,0,0.00
2014-10-1,72.5,66.8,58.7,13.0,8.6,2.3,1,1,1,29.82,29.69,0,0,0,0.00
2014-10-2,73.3,64.2,57.2,13.5,6.5,1.1,1,1,1,29.90,29.82,0,0,0,0.00
2014-10-3,70.0,66.4,59.4,11.0,8.2,2.8,1,1,1,29.87,29.46,0,0,0,0.00
2014-10-4,70.2,63.0,47.0,11.8,5.6,-6.7,15,1,1,29.59,29.35,0,0,0,0.00
2014-10-5,61.9,48.9,35.3,32.0,-1.1,-15.9,34,6,1,29.72,29.58,0,0,0,0.00
2014-10-6,72.4,57.3,40.0,41.2,7.2,-12.2,33,9,1,29.78,29.66,0,0,0,0.00
2014-10-7,69.8,63.6,58.3,17.0,6.3,1.8,16,2,1,29.81,29.61,0,0,0,0.00
2014-10-8,71.3,62.2,52.4,12.0,5.0,-2.8,1,1,1,29.77,29.61,0,0,0,0.00
2014-10-9,72.5,58.5,45.7,30.3,2.9,-7.7,22,3,1,29.88,29.76,0,0,0,0.06
2014-10-10,64.6,58.1,53.5,6.9,1.9,-1.8,1,1,1,29.88,29.81,0,0,0,0.00
2014-10-11,60.7,55.6,52.4,3.8,-0.1,-2.6,1,1,1,29.92,29.74,0,0,0,0.00
2014-10-12,60.8,54.7,47.3,4.0,-0.8,-6.5,1,1,1,30.05,29.92,0,0,0,0.04
2014-10-13,68.2,62.8,55.8,9.6,5.5,0.1,1,1,1,30.04,29.94,0,0,0,0.06
2014-10-14,78.3,72.5,66.6,17.3,12.9,8.4,1,1,1,29.94,29.72,0,0,0,0.00
2014-10-15,78.3,71.5,62.8,17.3,12.2,5.5,1,1,1,29.72,29.51,0,0,0,0.44
2014-10-16,67.3,62.2,59.8,9.0,5.0,3.1,1,1,1,29.52,29.47,0,0,0,0.00
2014-10-17,69.5,60.3,50.9,10.5,3.5,-3.8,1,1,1,29.58,29.43,0,0,0,0.00
2014-10-18,67.3,57.0,45.9,9.0,1.0,-7.6,1,1,1,29.63,29.37,0,0,0,0.00
2014-10-19,57.8,50.2,39.4,32.2,2.5,-12.6,39,10,1,29.87,29.61,0,0,0,0.00
2014-10-20,67.9,50.9,34.9,9.4,-3.8,-16.2,1,1,1,29.88,29.68,0,0,0,0.00
2014-10-21,69.3,56.3,45.7,10.3,0.4,-7.7,1,1,1,29.68,29.55,0,0,0,0.60
2014-10-22,56.2,54.8,51.8,0.4,-0.7,-3.2,1,1,1,29.70,29.60,0,0,0,0.42
2014-10-23,62.8,55.7,50.0,5.4,-0.0,-4.5,1,1,1,29.67,29.58,0,0,0,0.00
2014-10-24,66.2,56.8,48.4,36.9,5.6,-5.7,36,7,1,29.73,29.63,0,0,0,0.00
2014-10-25,72.7,57.2,37.3,35.8,4.5,-14.4,29,6,1,29.71,29.45,0,0,0,0.00
2014-10-26,67.7,54.5,44.6,40.3,13.0,-8.6,46,18,1,29.67,29.42,0,0,0,0.00
2014-10-31,70.2,68.3,64.6,11.1,9.6,6.9,1,1,1,29.73,29.58,0,0,0,0.00
2014-11-1,70.0,59.4,46.6,21.1,2.9,-30.1,23,1,1,29.66,29.51,0,0,0,2.59
2014-11-2,50.4,45.3,40.0,28.6,12.4,-9.6,49,29,1,29.97,29.63,0,0,0,0.00
2014-11-3,60.3,47.2,36.9,35.6,19.5,-12.6,48,34,1,30.07,29.96,0,0,0,0.00
2014-11-4,70.2,52.8,37.1,38.9,6.4,-14.5,36,12,1,29.97,29.80,0,0,0,0.00
2014-11-5,68.0,55.8,44.8,21.9,0.8,-8.4,24,3,1,29.94,29.82,0,0,0,0.05
2014-11-6,64.8,56.4,45.7,6.9,0.5,-7.7,1,1,1,29.88,29.40,0,0,0,0.55
2014-11-7,56.5,46.8,35.6,25.0,1.8,-15.7,38,12,1,29.81,29.45,0,0,0,0.00
2014-11-8,52.7,40.3,26.3,25.9,-5.0,-22.9,38,10,1,29.83,29.65,0,0,0,0.00
2014-11-9,60.3,46.6,33.3,27.3,-1.6,-17.4,31,8,1,29.79,29.65,0,0,0,0.00
2014-11-10,65.2,46.1,32.0,16.9,-7.2,-18.4,17,2,1,29.92,29.78,0,0,0,0.00
2014-11-11,67.7,51.9,34.0,9.1,-3.0,-16.9,1,1,1,29.84,29.64,0,0,0,0.00
2014-11-12,66.2,57.5,43.0,31.2,5.6,-20.9,39,7,1,29.88,29.61,0,0,0,0.00
2014-11-13,48.6,41.8,35.3,15.6,-8.2,-15.9,28,5,1,29.91,29.79,0,0,0,0.03
2014-11-14,43.0,35.4,27.4,22.1,-2.0,-22.1,48,20,1,30.03,29.81,0,0,0,0.00
2014-11-15,45.0,33.5,27.0,25.0,-6.0,-22.4,49,16,1,30.17,30.03,0,0,0,0.00
2014-11-16,46.1,39.4,28.3,24.1,-7.4,-21.5,43,8,1,30.10,29.76,0,0,0,0.07
2014-11-17,50.0,43.8,35.5,-4.5,-9.2,-15.8,1,1,1,29.77,29.28,0,0,0,0.85
2014-11-18,36.4,28.4,20.2,14.1,-2.4,-23.6,48,28,1,30.00,29.52,0,0,0,0.00
2014-11-19,37.1,28.1,17.5,17.8,1.1,-29.9,48,33,1,30.09,29.78,0,0,0,0.00
2014-11-20,54.2,39.3,27.7,30.6,13.9,-21.2,48,37,1,29.87,29.62,0,0,0,0.00
2014-11-21,38.9,30.1,22.3,18.4,11.8,-26.1,54,47,10,30.30,29.87,0,0,0,0.00
2014-11-22,49.7,34.9,18.5,26.9,1.0,-29.0,48,24,1,30.29,29.98,0,0,0,0.00
2014-11-23,55.8,45.7,32.4,32.4,12.4,-18.3,49,28,1,29.98,29.53,0,0,0,0.21
2014-11-24,68.6,64.2,55.3,9.9,6.6,-0.4,1,1,1,29.53,29.36,0,0,0,0.24
2014-11-25,63.2,52.4,43.0,27.3,0.7,-9.9,33,5,1,29.90,29.52,0,0,0,0.00
2014-11-26,45.9,38.9,34.9,-7.7,-13.1,-16.2,1,1,1,29.91,29.63,0,0,0,1.18
2014-11-27,46.4,36.7,29.5,-7.2,-14.8,-20.3,1,1,1,29.92,29.73,0,0,0,0.02
2014-11-28,41.9,32.0,23.8,-10.7,-18.4,-25.0,1,1,1,30.06,29.92,0,0,0,0.00
2014-11-29,48.6,38.7,25.0,2.0,-13.1,-23.9,16,2,1,30.07,29.89,0,0,0,0.00
2014-11-30,65.3,50.7,35.6,30.8,-0.3,-15.7,28,6,1,29.90,29.78,0,0,0,0.00
2014-12-1,72.7,56.4,40.7,13.2,0.5,-11.6,1,1,1,30.22,29.87,0,0,0,0.13
2014-12-2,43.9,37.3,34.0,-9.4,-14.3,-16.9,1,1,1,30.32,30.04,0,0,0,0.68
2014-12-3,53.3,44.5,36.7,-1.9,-8.7,-14.7,1,1,1,30.05,29.77,0,0,0,0.04
2014-12-4,46.1,37.7,27.7,-7.5,-14.0,-21.8,1,1,1,30.23,30.05,0,0,0,0.00
2014-12-5,44.5,40.3,38.7,-8.9,-11.9,-13.2,1,1,1,30.27,30.07,0,0,0,0.04
2014-12-6,52.2,46.1,41.2,-2.8,-7.5,-11.2,1,1,1,30.07,29.77,0,0,0,0.66
2014-12-7,48.6,39.6,32.4,25.1,-9.0,-31.0,42,6,1,30.30,30.00,0,0,0,0.00
2014-12-8,40.0,34.7,30.6,-12.2,-16.3,-19.6,1,1,1,30.32,29.97,0,0,0,0.00
2014-12-9,42.8,38.5,31.0,-10.1,-13.4,-19.3,1,1,1,29.97,29.60,0,0,0,0.49
2014-12-10,49.3,41.2,37.6,-5.7,-11.3,-14.2,1,1,1,29.61,29.54,0,0,0,0.00
2014-12-11,42.7,38.2,34.7,20.3,-2.5,-16.6,47,16,1,29.75,29.57,0,0,0,0.00
2014-12-12,44.5,39.0,33.5,24.3,10.3,-17.4,48,33,1,29.86,29.74,0,0,0,0.00
2014-12-13,48.8,34.5,23.4,-5.4,-16.5,-25.3,1,1,1,29.88,29.74,0,0,0,0.00
2014-12-14,54.5,41.4,25.6,-0.9,-11.2,-23.6,1,1,1,29.78,29.69,0,0,0,0.00
2014-12-15,59.2,44.0,31.9,2.7,-9.1,-18.5,1,1,1,29.86,29.77,0,0,0,0.00
2014-12-16,48.6,41.8,31.3,-5.5,-10.8,-18.9,1,1,1,29.81,29.60,0,0,0,0.38
2014-12-17,55.4,45.0,36.9,-0.4,-8.3,-14.7,1,1,1,29.82,29.64,0,0,0,0.00
2014-12-18,42.5,37.5,33.8,5.3,-13.9,-17.1,22,2,1,29.93,29.81,0,0,0,0.00
2014-12-19,41.6,36.2,27.2,-5.8,-15.1,-22.2,14,2,1,30.00,29.84,0,0,0,0.00
2014-12-20,48.6,27.0,19.8,-5.5,-22.4,-28.0,5,1,1,30.08,29.97,0,0,0,0.00
2014-12-21,40.3,40.3,40.3,-11.9,-11.9,-11.9,1,1,1,30.11,30.10,0,0,0,0.00
2014-12-28,70.0,51.1,43.0,18.4,-3.3,-27.7,18,2,1,29.86,29.71,0,0,0,0.05
2014-12-29,45.9,41.6,38.9,-7.7,-11.0,-13.0,7,1,1,30.01,29.85,0,0,0,0.02
2014-12-30,42.7,35.6,24.3,21.3,2.6,-24.6,50,27,1,30.17,30.00,0,0,0,0.00
2014-12-31,36.4,26.8,19.1,16.9,-11.0,-28.5,50,17,1,30.19,29.99,0,0,0,0.00
2015-1-1,43.6,30.1,18.2,22.3,-5.8,-29.4,49,20,1,29.99,29.80,0,0,0,0.00
2015-1-2,47.5,33.8,25.2,22.8,-9.2,-23.8,43,11,1,30.18,29.84,0,0,0,0.00